createdAt,value
2019-01-10T00:02:25.160Z,5.57
2019-01-10T00:04:52.729Z,8.47
2019-01-10T00:07:20.755Z,7.20
2019-01-10T00:09:48.881Z,7.67
2019-01-10T00:12:16.399Z,6.07
2019-01-10T00:14:43.939Z,5.03
2019-01-10T00:17:11.865Z,7.40
2019-01-10T00:19:39.760Z,5.87
2019-01-10T00:22:07.818Z,4.27
2019-01-10T00:24:35.818Z,5.93
2019-01-10T00:27:04.163Z,5.37
2019-01-10T00:29:31.918Z,9.40
2019-01-10T00:31:59.701Z,5.80
2019-01-10T00:34:27.174Z,5.47
2019-01-10T00:36:54.683Z,5.53
2019-01-10T00:39:22.152Z,5.20
2019-01-10T00:41:49.695Z,4.77
2019-01-10T00:44:17.174Z,5.90
2019-01-10T00:46:44.601Z,5.07
2019-01-10T00:49:12.602Z,4.73
2019-01-10T00:51:40.410Z,5.23
2019-01-10T00:54:07.878Z,5.73
2019-01-10T00:56:35.754Z,5.73
2019-01-10T00:59:03.227Z,7.00
2019-01-10T01:01:31.107Z,6.40
2019-01-10T01:03:58.578Z,6.13
2019-01-10T01:06:26.474Z,4.70
2019-01-10T01:08:54.516Z,7.43
2019-01-10T01:11:22.850Z,8.27
2019-01-10T01:13:50.284Z,5.17
2019-01-10T01:16:17.853Z,6.60
2019-01-10T01:18:46.101Z,5.90
2019-01-10T01:21:14.265Z,4.70
2019-01-10T01:23:41.738Z,8.23
2019-01-10T01:26:09.641Z,6.37
2019-01-10T01:28:37.745Z,6.50
2019-01-10T01:31:05.292Z,4.93
2019-01-10T01:33:32.926Z,5.73
2019-01-10T01:36:00.769Z,5.53
2019-01-10T01:38:28.217Z,5.00
2019-01-10T01:40:55.682Z,5.70
2019-01-10T01:43:23.741Z,6.00
2019-01-10T01:45:51.165Z,7.53
2019-01-10T01:48:18.875Z,5.33
2019-01-10T01:50:46.939Z,7.10
2019-01-10T01:53:15.259Z,4.03
2019-01-10T01:55:43.066Z,5.77
2019-01-10T01:58:10.873Z,6.80
2019-01-10T02:00:39.734Z,8.03
2019-01-10T02:03:07.470Z,5.17
2019-01-10T02:05:35.165Z,4.50
2019-01-10T02:08:03.234Z,5.80
2019-01-10T02:10:31.486Z,10.43
2019-01-10T02:12:59.244Z,6.30
2019-01-10T02:15:27.326Z,6.37
2019-01-10T02:17:55.211Z,5.13
2019-01-10T02:20:22.950Z,4.80
2019-01-10T02:22:50.774Z,5.43
2019-01-10T02:25:18.245Z,5.47
2019-01-10T02:27:46.378Z,6.03
2019-01-10T02:30:16.862Z,6.70
2019-01-10T02:32:44.850Z,4.43
2019-01-10T02:35:12.516Z,7.90
2019-01-10T02:37:40.173Z,5.10
2019-01-10T02:40:07.989Z,6.73
2019-01-10T02:42:36.174Z,7.77
2019-01-10T02:45:04.980Z,4.30
2019-01-10T02:47:32.408Z,4.77
2019-01-10T02:50:00.208Z,5.17
2019-01-10T02:52:27.715Z,4.17
2019-01-10T02:54:55.321Z,5.93
2019-01-10T02:57:23.132Z,4.80
2019-01-10T02:59:50.879Z,3.63
2019-01-10T03:02:18.471Z,4.17
2019-01-10T03:04:46.713Z,5.43
2019-01-10T03:07:14.454Z,4.63
2019-01-10T03:09:41.954Z,4.60
2019-01-10T03:12:09.898Z,4.70
2019-01-10T03:14:37.343Z,3.77
2019-01-10T03:17:05.260Z,5.03
2019-01-10T03:19:32.724Z,6.10
2019-01-10T03:22:00.934Z,4.33
2019-01-10T03:24:28.862Z,6.23
2019-01-10T03:26:56.290Z,6.67
2019-01-10T03:29:24.586Z,5.37
2019-01-10T03:31:52.516Z,3.47
2019-01-10T03:34:20.291Z,4.63
2019-01-10T03:36:48.763Z,7.77
2019-01-10T03:39:16.503Z,3.80
2019-01-10T03:41:43.992Z,5.00
2019-01-10T03:44:11.766Z,4.30
2019-01-10T03:46:39.743Z,7.20
2019-01-10T03:49:07.342Z,6.40
2019-01-10T03:51:34.899Z,4.43
2019-01-10T03:54:03.031Z,4.60
2019-01-10T03:56:30.987Z,7.37
2019-01-10T03:58:58.779Z,5.53
2019-01-10T04:01:26.739Z,6.23
2019-01-10T04:03:54.297Z,4.50
2019-01-10T04:06:22.751Z,7.10
2019-01-10T04:08:50.841Z,6.43
2019-01-10T04:11:18.861Z,6.40
2019-01-10T04:13:57.071Z,6.03
2019-01-10T04:16:16.388Z,5.10
2019-01-10T04:18:44.102Z,5.17
2019-01-10T04:21:17.596Z,7.53
2019-01-10T04:23:41.580Z,5.03
2019-01-10T04:26:09.119Z,5.30
2019-01-10T04:28:37.462Z,5.90
2019-01-10T04:31:05.040Z,4.33
2019-01-10T04:33:32.761Z,4.50
2019-01-10T04:36:00.509Z,7.70
2019-01-10T04:38:28.242Z,4.87
2019-01-10T04:40:55.684Z,5.90
2019-01-10T04:43:23.166Z,3.90
2019-01-10T04:45:50.611Z,5.40
2019-01-10T04:48:18.169Z,6.90
2019-01-10T04:50:45.751Z,5.13
2019-01-10T04:53:13.611Z,6.53
2019-01-10T04:55:41.070Z,4.83
2019-01-10T04:58:08.502Z,3.83
2019-01-10T05:00:36.130Z,3.13
2019-01-10T05:03:03.565Z,4.87
2019-01-10T05:05:31.935Z,5.27
2019-01-10T05:07:59.771Z,5.73
2019-01-10T05:10:27.609Z,5.40
2019-01-10T05:12:56.186Z,4.10
2019-01-10T05:15:24.168Z,4.60
2019-01-10T05:17:51.710Z,8.07
2019-01-10T05:20:20.405Z,3.80
2019-01-10T05:22:47.986Z,5.20
2019-01-10T05:25:15.483Z,2.93
2019-01-10T05:27:43.643Z,4.20
2019-01-10T05:30:22.343Z,6.23
2019-01-10T05:32:50.281Z,8.70
2019-01-10T05:35:18.159Z,4.50
2019-01-10T05:37:46.051Z,6.73
2019-01-10T05:40:13.882Z,4.70
2019-01-10T05:42:41.653Z,4.47
2019-01-10T05:45:10.708Z,5.00
2019-01-10T05:47:38.257Z,2.57
2019-01-10T05:50:07.681Z,3.60
2019-01-10T05:52:35.646Z,3.97
2019-01-10T05:55:04.214Z,5.80
2019-01-10T05:57:32.395Z,4.60
2019-01-10T06:00:00.543Z,4.63
2019-01-10T06:02:28.651Z,5.43
2019-01-10T06:04:56.187Z,3.80
2019-01-10T06:07:24.638Z,4.30
2019-01-10T06:09:52.290Z,4.13
2019-01-10T06:12:19.798Z,4.03
2019-01-10T06:14:47.329Z,3.23
2019-01-10T06:17:14.806Z,5.93
2019-01-10T06:19:42.458Z,3.53
2019-01-10T06:22:09.922Z,3.70
2019-01-10T06:24:37.671Z,3.50
2019-01-10T06:27:05.492Z,5.23
2019-01-10T06:29:32.937Z,3.27
2019-01-10T06:32:00.654Z,5.00
2019-01-10T06:34:28.633Z,5.43
2019-01-10T06:36:56.835Z,4.13
2019-01-10T06:39:24.653Z,4.97
2019-01-10T06:41:52.121Z,8.07
2019-01-10T06:44:21.562Z,4.17
2019-01-10T06:46:49.036Z,3.77
2019-01-10T06:49:16.853Z,5.17
2019-01-10T06:51:44.935Z,3.50
2019-01-10T06:54:12.709Z,5.13
2019-01-10T06:56:40.453Z,4.53
2019-01-10T06:59:08.173Z,4.37
2019-01-10T07:01:36.174Z,3.50
2019-01-10T07:04:04.090Z,4.53
2019-01-10T07:06:31.878Z,3.67
2019-01-10T07:08:59.434Z,4.43
2019-01-10T07:11:27.629Z,5.13
2019-01-10T07:13:55.589Z,4.47
2019-01-10T07:16:23.404Z,4.90
2019-01-10T07:18:51.522Z,6.13
2019-01-10T07:21:19.390Z,4.13
2019-01-10T07:23:47.168Z,4.30
2019-01-10T07:26:14.922Z,3.87
2019-01-10T07:28:43.264Z,7.37
2019-01-10T07:31:30.347Z,5.07
2019-01-10T07:34:02.347Z,5.20
2019-01-10T07:36:29.975Z,5.30
2019-01-10T07:38:58.215Z,4.03
2019-01-10T07:41:26.157Z,4.90
2019-01-10T07:43:54.178Z,15.00
2019-01-10T07:46:22.047Z,5.97
2019-01-10T07:48:50.069Z,7.57
2019-01-10T07:51:17.606Z,4.77
2019-01-10T07:53:45.303Z,6.97
2019-01-10T07:56:13.106Z,7.17
2019-01-10T07:58:41.765Z,7.63
2019-01-10T08:01:09.675Z,8.00
2019-01-10T08:03:37.503Z,5.50
2019-01-10T08:06:04.955Z,8.20
2019-01-10T08:08:32.390Z,6.53
2019-01-10T08:11:00.193Z,4.23
2019-01-10T08:13:27.978Z,5.67
2019-01-10T08:15:56.134Z,7.00
2019-01-10T08:18:23.653Z,7.17
2019-01-10T08:20:51.258Z,7.00
2019-01-10T08:23:18.796Z,5.87
2019-01-10T08:25:46.673Z,3.60
2019-01-10T08:28:14.511Z,6.23
2019-01-10T08:30:42.445Z,5.20
2019-01-10T08:33:10.003Z,6.10
2019-01-10T08:35:37.941Z,4.47
2019-01-10T08:38:05.822Z,7.20
2019-01-10T08:40:33.338Z,4.97
2019-01-10T08:43:01.282Z,5.57
2019-01-10T08:45:29.005Z,4.83
2019-01-10T08:47:56.644Z,3.90
2019-01-10T08:50:25.301Z,4.77
2019-01-10T08:52:53.355Z,5.97
2019-01-10T08:55:21.051Z,4.63
2019-01-10T08:57:49.134Z,4.63
2019-01-10T09:00:18.447Z,5.47
2019-01-10T09:02:46.443Z,4.60
2019-01-10T09:05:14.855Z,6.47
2019-01-10T09:07:42.505Z,6.57
2019-01-10T09:10:28.526Z,3.80
2019-01-10T09:12:56.266Z,8.97
2019-01-10T09:15:33.901Z,4.93
2019-01-10T09:17:54.559Z,4.73
2019-01-10T09:20:22.818Z,5.37
2019-01-10T09:22:50.453Z,5.00
2019-01-10T09:25:18.402Z,4.93
2019-01-10T09:27:46.411Z,4.23
2019-01-10T09:30:16.598Z,6.13
2019-01-10T09:32:44.574Z,4.03
2019-01-10T09:35:12.708Z,3.67
2019-01-10T09:37:40.942Z,5.77
2019-01-10T09:40:11.153Z,5.90
2019-01-10T09:42:39.429Z,5.40
2019-01-10T09:45:08.290Z,4.83
2019-01-10T09:47:36.468Z,6.03
2019-01-10T09:50:05.705Z,4.83
2019-01-10T09:52:33.232Z,4.60
2019-01-10T09:55:03.817Z,4.30
2019-01-10T09:57:31.723Z,3.97
2019-01-10T09:59:59.811Z,5.40
2019-01-10T10:02:27.379Z,8.67
2019-01-10T10:04:55.274Z,3.93
2019-01-10T10:07:23.386Z,4.20
2019-01-10T10:09:51.359Z,5.17
2019-01-10T10:12:19.317Z,3.90
2019-01-10T10:14:46.934Z,3.43
2019-01-10T10:17:14.964Z,3.93
2019-01-10T10:19:43.346Z,4.13
2019-01-10T10:22:11.477Z,3.40
2019-01-10T10:24:40.154Z,4.20
2019-01-10T10:27:07.814Z,5.10
2019-01-10T10:29:35.425Z,4.13
2019-01-10T10:32:03.239Z,3.03
2019-01-10T10:34:31.389Z,3.17
2019-01-10T10:37:00.812Z,2.50
2019-01-10T10:39:29.038Z,2.23
2019-01-10T10:41:56.892Z,2.23
2019-01-10T10:44:24.741Z,3.30
2019-01-10T10:46:52.519Z,3.13
2019-01-10T10:49:20.994Z,2.60
2019-01-10T10:51:48.544Z,4.50
2019-01-10T10:54:16.074Z,4.20
2019-01-10T10:56:44.716Z,2.77
2019-01-10T10:59:12.786Z,2.97
2019-01-10T11:01:40.314Z,4.17
2019-01-10T11:04:08.477Z,5.37
2019-01-10T11:06:35.972Z,3.40
2019-01-10T11:09:09.277Z,4.07
2019-01-10T11:11:36.281Z,3.23
2019-01-10T11:14:03.866Z,4.57
2019-01-10T11:16:31.553Z,3.20
2019-01-10T11:18:59.185Z,4.50
2019-01-10T11:21:26.755Z,4.83
2019-01-10T11:23:54.221Z,4.30
2019-01-10T11:26:21.845Z,1.83
2019-01-10T11:28:50.322Z,3.77
2019-01-10T11:31:17.910Z,3.27
2019-01-10T11:33:46.274Z,3.67
2019-01-10T11:36:14.545Z,4.90
2019-01-10T11:38:42.403Z,3.67
2019-01-10T11:41:09.910Z,4.77
2019-01-10T11:43:37.567Z,3.60
2019-01-10T11:46:05.535Z,4.13
2019-01-10T11:48:33.050Z,5.17
2019-01-10T11:51:01.272Z,3.40
2019-01-10T11:53:35.386Z,2.70
2019-01-10T11:55:58.641Z,3.97
2019-01-10T11:58:27.003Z,4.67
2019-01-10T12:00:55.138Z,2.40
2019-01-10T12:03:23.570Z,3.10
2019-01-10T12:05:53.196Z,3.33
2019-01-10T12:08:20.977Z,3.70
2019-01-10T12:10:48.549Z,4.30
2019-01-10T12:13:16.830Z,5.37
2019-01-10T12:15:44.878Z,3.83
2019-01-10T12:18:12.808Z,4.30
2019-01-10T12:20:40.705Z,4.83
2019-01-10T12:23:09.101Z,2.67
2019-01-10T12:25:37.360Z,3.63
2019-01-10T12:28:05.873Z,2.57
2019-01-10T12:30:34.143Z,6.13
2019-01-10T12:33:03.214Z,4.00
2019-01-10T12:35:30.778Z,4.77
2019-01-10T12:37:59.152Z,4.60
2019-01-10T12:40:26.859Z,4.30
2019-01-10T12:42:55.181Z,5.93
2019-01-10T12:45:23.076Z,5.10
2019-01-10T12:47:50.898Z,2.93
2019-01-10T12:50:23.900Z,3.23
2019-01-10T12:52:53.545Z,6.10
2019-01-10T12:55:21.591Z,5.53
2019-01-10T12:57:49.585Z,3.80
2019-01-10T13:00:19.134Z,8.67
2019-01-10T13:02:47.267Z,4.37
2019-01-10T13:05:15.303Z,4.90
2019-01-10T13:07:43.073Z,4.80
2019-01-10T13:10:13.886Z,3.10
2019-01-10T13:12:41.693Z,6.80
2019-01-10T13:15:12.620Z,2.73
2019-01-10T13:17:41.574Z,4.07
2019-01-10T13:20:11.399Z,3.43
2019-01-10T13:22:39.504Z,5.87
2019-01-10T13:25:09.310Z,3.47
2019-01-10T13:27:37.040Z,4.53
2019-01-10T13:30:07.634Z,3.50
2019-01-10T13:32:35.301Z,3.63
2019-01-10T13:35:03.433Z,3.07
2019-01-10T13:37:32.628Z,7.73
2019-01-10T13:40:00.296Z,2.90
2019-01-10T13:42:27.985Z,3.27
2019-01-10T13:44:55.641Z,3.87
2019-01-10T13:47:26.509Z,5.37
2019-01-10T13:49:54.627Z,3.37
2019-01-10T13:52:23.744Z,4.47
2019-01-10T13:54:52.197Z,7.63
2019-01-10T13:57:20.082Z,6.30
2019-01-10T13:59:47.708Z,3.10
2019-01-10T14:02:16.030Z,5.60
2019-01-10T14:04:43.795Z,2.47
2019-01-10T14:07:11.825Z,3.13
2019-01-10T14:09:39.631Z,3.27
2019-01-10T14:12:07.883Z,2.87
2019-01-10T14:14:36.180Z,2.87
2019-01-10T14:17:03.899Z,3.80
2019-01-10T14:19:31.415Z,2.57
2019-01-10T14:21:59.233Z,3.07
2019-01-10T14:24:27.481Z,2.90
2019-01-10T14:26:55.522Z,2.93
2019-01-10T14:29:23.281Z,4.10
2019-01-10T14:31:51.238Z,4.27
2019-01-10T14:34:18.883Z,4.83
2019-01-10T14:36:46.985Z,3.70
2019-01-10T14:39:15.105Z,3.67
2019-01-10T14:41:43.822Z,3.90
2019-01-10T14:44:12.265Z,5.60
2019-01-10T14:46:39.991Z,7.33
2019-01-10T14:49:07.537Z,3.50
2019-01-10T14:51:35.508Z,5.63
2019-01-10T14:54:03.982Z,2.47
2019-01-10T14:56:31.621Z,3.67
2019-01-10T14:58:59.546Z,4.10
2019-01-10T15:01:27.163Z,4.00
2019-01-10T15:03:55.764Z,2.37
2019-01-10T15:06:23.920Z,5.60
2019-01-10T15:08:51.566Z,5.47
2019-01-10T15:11:19.358Z,4.23
2019-01-10T15:13:47.403Z,2.23
2019-01-10T15:16:15.196Z,5.83
2019-01-10T15:18:43.080Z,3.60
2019-01-10T15:21:11.083Z,2.10
2019-01-10T15:23:39.217Z,5.60
2019-01-10T15:26:06.891Z,3.77
2019-01-10T15:28:34.809Z,2.97
2019-01-10T15:31:02.400Z,2.60
2019-01-10T15:33:30.096Z,3.03
2019-01-10T15:35:57.951Z,2.77
2019-01-10T15:38:26.412Z,4.90
2019-01-10T15:40:54.596Z,2.90
2019-01-10T15:43:22.612Z,3.40
2019-01-10T15:45:50.238Z,5.00
2019-01-10T15:48:18.202Z,5.30
2019-01-10T15:50:46.211Z,3.63
2019-01-10T15:53:13.901Z,4.37
2019-01-10T15:55:42.099Z,3.50
2019-01-10T15:58:10.141Z,2.90
2019-01-10T16:00:37.858Z,2.23
2019-01-10T16:03:07.284Z,2.50
2019-01-10T16:05:35.348Z,2.47
2019-01-10T16:08:03.478Z,3.73
2019-01-10T16:10:31.542Z,4.87
2019-01-10T16:12:59.214Z,4.73
2019-01-10T16:15:26.946Z,2.70
2019-01-10T16:17:54.540Z,3.20
2019-01-10T16:20:23.094Z,3.03
2019-01-10T16:22:51.059Z,2.53
2019-01-10T16:25:19.783Z,3.27
2019-01-10T16:27:48.439Z,4.67
2019-01-10T16:30:18.540Z,3.77
2019-01-10T16:32:46.953Z,5.13
2019-01-10T16:35:14.773Z,3.47
2019-01-10T16:37:42.353Z,3.90
2019-01-10T16:40:10.352Z,4.40
2019-01-10T16:42:38.026Z,3.27
2019-01-10T16:45:09.321Z,4.40
2019-01-10T16:47:37.425Z,3.67
2019-01-10T16:50:05.726Z,4.27
2019-01-10T16:52:33.731Z,4.87
2019-01-10T16:55:02.644Z,6.67
2019-01-10T16:57:30.801Z,3.10
2019-01-10T16:59:58.507Z,2.30
2019-01-10T17:02:26.778Z,2.00
2019-01-10T17:04:54.905Z,2.47
2019-01-10T17:07:22.459Z,2.87
2019-01-10T17:09:50.567Z,5.13
2019-01-10T17:12:18.239Z,2.77
2019-01-10T17:14:46.053Z,5.40
2019-01-10T17:17:13.621Z,1.73
2019-01-10T17:19:41.781Z,4.20
2019-01-10T17:22:09.359Z,4.57
2019-01-10T17:24:36.898Z,2.27
2019-01-10T17:27:05.021Z,4.33
2019-01-10T17:29:33.062Z,4.43
2019-01-10T17:32:00.629Z,4.63
2019-01-10T17:34:28.357Z,1.90
2019-01-10T17:36:56.027Z,2.10
2019-01-10T17:39:23.802Z,3.23
2019-01-10T17:41:53.145Z,2.80
2019-01-10T17:44:21.167Z,1.90
2019-01-10T17:46:51.760Z,2.20
2019-01-10T17:49:20.376Z,1.60
2019-01-10T17:51:48.958Z,2.03
2019-01-10T17:54:16.854Z,2.47
2019-01-10T17:56:45.542Z,3.67
2019-01-10T17:59:13.454Z,3.07
2019-01-10T18:01:41.721Z,3.07
2019-01-10T18:04:12.315Z,4.47
2019-01-10T18:06:40.344Z,4.43
2019-01-10T18:09:08.812Z,2.03
2019-01-10T18:11:37.343Z,2.00
2019-01-10T18:14:05.769Z,2.10
2019-01-10T18:16:33.180Z,4.77
2019-01-10T18:19:01.499Z,2.30
2019-01-10T18:21:30.413Z,3.53
2019-01-10T18:23:58.251Z,2.10
2019-01-10T18:26:26.581Z,3.37
2019-01-10T18:28:54.246Z,3.07
2019-01-10T18:31:24.024Z,3.37
2019-01-10T18:33:52.918Z,4.37
2019-01-10T18:36:20.650Z,2.93
2019-01-10T18:38:48.517Z,4.23
2019-01-10T18:41:16.753Z,3.60
2019-01-10T18:43:44.345Z,4.53
2019-01-10T18:46:11.865Z,3.07
2019-01-10T18:48:39.959Z,4.13
2019-01-10T18:51:08.038Z,3.67
2019-01-10T18:53:35.928Z,5.40
2019-01-10T18:56:03.495Z,4.47
2019-01-10T18:58:31.651Z,4.73
2019-01-10T19:01:00.202Z,4.60
2019-01-10T19:03:28.388Z,4.53
2019-01-10T19:05:56.395Z,6.13
2019-01-10T19:08:24.482Z,4.07
2019-01-10T19:10:52.571Z,4.13
2019-01-10T19:13:20.419Z,4.10
2019-01-10T19:15:48.207Z,3.27
2019-01-10T19:18:15.763Z,4.67
2019-01-10T19:20:44.343Z,5.67
2019-01-10T19:23:12.200Z,4.17
2019-01-10T19:25:43.238Z,4.67
2019-01-10T19:28:11.502Z,3.17
2019-01-10T19:30:39.977Z,4.13
2019-01-10T19:33:08.128Z,3.87
2019-01-10T19:35:36.378Z,5.43
2019-01-10T19:38:04.720Z,3.90
2019-01-10T19:40:33.974Z,4.57
2019-01-10T19:43:03.164Z,4.47
2019-01-10T19:45:31.015Z,6.17
2019-01-10T19:47:58.999Z,5.33
2019-01-10T19:50:26.607Z,3.53
2019-01-10T19:52:54.946Z,3.10
2019-01-10T19:55:23.290Z,3.60
2019-01-10T19:57:51.054Z,3.70
2019-01-10T20:00:45.048Z,3.43
2019-01-10T20:03:12.537Z,3.43
2019-01-10T20:05:40.070Z,5.40
2019-01-10T20:08:07.628Z,4.60
2019-01-10T20:10:35.643Z,5.00
2019-01-10T20:13:05.390Z,4.07
2019-01-10T20:15:32.839Z,7.53
2019-01-10T20:18:01.277Z,4.53
2019-01-10T20:20:35.563Z,3.70
2019-01-10T20:23:04.432Z,6.20
2019-01-10T20:25:32.059Z,6.67
2019-01-10T20:28:00.368Z,7.67
2019-01-10T20:30:28.373Z,6.00
2019-01-10T20:32:56.413Z,6.00
2019-01-10T20:35:24.240Z,4.70
2019-01-10T20:37:52.151Z,7.03
2019-01-10T20:40:19.984Z,4.07
2019-01-10T20:42:47.415Z,5.13
2019-01-10T20:45:15.779Z,11.40
2019-01-10T20:47:43.757Z,6.67
2019-01-10T20:50:11.482Z,6.60
2019-01-10T20:52:38.955Z,7.97
2019-01-10T20:55:08.181Z,8.90
2019-01-10T20:57:35.749Z,7.90
2019-01-10T21:00:05.097Z,5.57
2019-01-10T21:02:32.744Z,4.17
2019-01-10T21:05:00.534Z,6.63
2019-01-10T21:07:29.023Z,6.57
2019-01-10T21:09:57.437Z,3.93
2019-01-10T21:12:25.464Z,5.73
2019-01-10T21:14:53.533Z,6.90
2019-01-10T21:17:21.546Z,6.30
2019-01-10T21:19:49.389Z,5.80
2019-01-10T21:22:17.267Z,5.87
2019-01-10T21:24:45.079Z,5.53
2019-01-10T21:27:12.668Z,10.47
2019-01-10T21:29:40.571Z,8.60
2019-01-10T21:32:08.420Z,6.77
2019-01-10T21:34:36.259Z,9.07
2019-01-10T21:37:03.911Z,8.77
2019-01-10T21:39:32.038Z,7.83
2019-01-10T21:41:59.690Z,10.10
2019-01-10T21:44:27.488Z,8.17
2019-01-10T21:46:54.992Z,8.47
2019-01-10T21:49:22.594Z,7.53
2019-01-10T21:51:50.227Z,7.80
2019-01-10T21:54:18.460Z,9.13
2019-01-10T21:56:45.975Z,5.97
2019-01-10T21:59:13.454Z,6.67
2019-01-10T22:01:41.075Z,6.07
2019-01-10T22:04:08.904Z,6.77
2019-01-10T22:06:36.851Z,8.93
2019-01-10T22:09:06.439Z,6.33
2019-01-10T22:11:35.006Z,8.90
2019-01-10T22:14:02.742Z,10.07
2019-01-10T22:16:30.646Z,7.17
2019-01-10T22:18:58.370Z,6.00
2019-01-10T22:21:26.466Z,6.87
2019-01-10T22:23:54.048Z,10.77
2019-01-10T22:26:21.803Z,9.43
2019-01-10T22:28:49.853Z,9.73
2019-01-10T22:31:17.369Z,8.80
2019-01-10T22:33:45.388Z,10.00
2019-01-10T22:36:13.652Z,7.37
2019-01-10T22:38:41.276Z,9.00
2019-01-10T22:41:08.752Z,7.63
2019-01-10T22:43:36.533Z,6.90
2019-01-10T22:46:03.970Z,6.13
2019-01-10T22:48:32.187Z,9.63
2019-01-10T22:50:59.713Z,12.13
2019-01-10T22:53:27.266Z,7.67
2019-01-10T22:55:54.774Z,8.87
2019-01-10T22:58:22.242Z,14.37
2019-01-10T23:01:32.663Z,10.67
2019-01-10T23:04:00.376Z,9.33
2019-01-10T23:06:27.855Z,11.93
2019-01-10T23:08:56.038Z,12.37
2019-01-10T23:11:24.545Z,10.07
2019-01-10T23:14:00.051Z,9.87
2019-01-10T23:16:28.677Z,11.57
2019-01-10T23:18:56.177Z,10.83
2019-01-10T23:21:23.705Z,10.07
2019-01-10T23:23:59.675Z,12.90
2019-01-10T23:26:27.198Z,10.13
2019-01-10T23:28:55.102Z,11.77
2019-01-10T23:31:22.803Z,10.73
2019-01-10T23:33:50.288Z,8.97
2019-01-10T23:36:18.174Z,10.97
2019-01-10T23:39:09.740Z,10.40
2019-01-10T23:41:37.489Z,10.13
2019-01-10T23:44:04.963Z,10.50
2019-01-10T23:46:32.528Z,11.77
2019-01-10T23:49:00.626Z,12.90
2019-01-10T23:51:28.109Z,14.60
2019-01-10T23:53:55.629Z,12.27
2019-01-10T23:56:23.119Z,14.30
2019-01-10T23:58:50.565Z,13.27
